Aérodrome :
LOGIN :

S'inscrire | Disclaimer

   EN    FR    IT 

 










Légende :    VFR   VFR Marginal   IFR   IFR Intensif   IFR Très Intensif
Visi : 
Plafond : 
>= 8 km
>= 3000ft
5 à 8 km
1000 à 3000 ft
1500m à 5 km
500 à 1000 ft
800 à 1500m
200 à 500 ft
< 800m
< 200 ft
Symboles :   Orages  Brouillard  Fortes neiges  Fortes précipitations  Vent > 20 kt
SIGMETs :   Divers  Orages  Givrage  Turbulence  Onde Orograph.  Cendres Volcan.







- Altitude de l'aérodrome : 16 ft
- Code IATA : EAS


LESO - San Sebastian Fuenterrabia

DERNIER METAR :
  • 280800Z VRB01KT CAVOK 11/04 Q1021

METARs EXPIRÉS :
  • 280730Z VRB02KT 9999 FEW052 09/03 Q1021
  • 280700Z 19003KT 150V240 9999 SCT052 09/04 Q1021
  • 280630Z VRB01KT 9999 BKN052 07/04 Q1021
  • 280600Z 15003KT 120V190 9999 SCT050 07/03 Q1021
  • 280530Z VRB01KT 9999 SCT050 07/03 Q1021

TAF TAF LESO
Valide du 28 à 06h jusqu'au 29 à 06h UTC


280500Z 2806/2906 VRB05KT 9999 SCT050 TX15/2814Z TN07/2906Z
TEMPO 2812/2818 01010KT
Pas de NOTAMs connus pour ce terrain.



MET'MAP, la Météo Aéronautique d'un coup d'oeil ! - Copyright ORBIFLY Décembre 2007 - Disclaimer

ORBIFLY MET'MAP TEAM :

Programmation & Développement : Alexandra Zaïnal
Conception & Développement : Baudouin d'Aumeries
Co-Programmation & Développement : Marc-Olivier Méhu
Soutien technique & logistique : Manuel Goepfert

Contact : metmap@orbifly.com




SOURCES & CREDITS :

   NOAA